createdAt,value
2022-12-22T00:00:57.233Z,8.90
2022-12-22T00:03:59.004Z,8.73
2022-12-22T00:07:02.180Z,9.70
2022-12-22T00:10:03.611Z,9.80
2022-12-22T00:13:05.039Z,9.57
2022-12-22T00:16:09.179Z,9.70
2022-12-22T00:19:10.332Z,8.30
2022-12-22T00:22:11.471Z,7.80
2022-12-22T00:25:12.904Z,9.33
2022-12-22T00:28:14.362Z,9.33
2022-12-22T00:31:16.774Z,7.80
2022-12-22T00:34:18.217Z,8.73
2022-12-22T00:37:19.735Z,8.70
2022-12-22T00:40:21.124Z,8.47
2022-12-22T00:43:22.617Z,8.13
2022-12-22T00:46:30.583Z,8.00
2022-12-22T00:49:32.990Z,8.43
2022-12-22T00:52:35.586Z,8.60
2022-12-22T00:55:41.552Z,7.80
2022-12-22T00:58:42.894Z,9.20
2022-12-22T01:01:45.528Z,9.40
2022-12-22T01:04:47.076Z,8.57
2022-12-22T01:07:49.140Z,8.17
2022-12-22T01:10:50.555Z,8.00
2022-12-22T01:13:51.773Z,7.87
2022-12-22T01:16:54.195Z,8.47
2022-12-22T01:19:55.163Z,7.73
2022-12-22T01:22:56.476Z,7.73
2022-12-22T01:25:57.612Z,7.77
2022-12-22T01:28:58.646Z,8.73
2022-12-22T01:32:01.095Z,8.27
2022-12-22T01:35:02.021Z,7.97
2022-12-22T01:38:05.127Z,8.00
2022-12-22T01:41:07.096Z,6.83
2022-12-22T01:44:08.683Z,8.50
2022-12-22T01:47:11.010Z,9.17
2022-12-22T01:50:12.476Z,8.10
2022-12-22T01:53:19.658Z,8.07
2022-12-22T01:56:22.063Z,7.87
2022-12-22T01:59:23.369Z,7.63
2022-12-22T02:02:27.707Z,8.17
2022-12-22T02:05:33.237Z,8.20
2022-12-22T02:08:42.081Z,6.77
2022-12-22T02:11:49.567Z,8.47
2022-12-22T02:14:57.694Z,8.77
2022-12-22T02:18:07.787Z,8.50
2022-12-22T02:21:12.774Z,8.40
2022-12-22T02:24:34.137Z,7.60
2022-12-22T02:27:37.775Z,8.03
2022-12-22T02:30:39.217Z,8.30
2022-12-22T02:33:41.045Z,8.20
2022-12-22T02:36:48.037Z,7.20
2022-12-22T02:40:00.806Z,7.47
2022-12-22T02:43:15.260Z,7.60
2022-12-22T02:46:26.416Z,7.73
2022-12-22T02:49:35.125Z,7.80
2022-12-22T02:52:41.285Z,8.33
2022-12-22T02:55:44.647Z,8.17
2022-12-22T02:58:51.026Z,7.73
2022-12-22T03:01:52.562Z,8.00
2022-12-22T03:04:53.515Z,7.40
2022-12-22T03:07:54.747Z,7.33
2022-12-22T03:10:57.347Z,6.97
2022-12-22T03:13:59.699Z,5.93
2022-12-22T03:17:00.402Z,6.70
2022-12-22T03:20:01.532Z,6.60
2022-12-22T03:23:04.956Z,7.60
2022-12-22T03:25:51.958Z,6.80
2022-12-22T03:28:35.660Z,6.80
2022-12-22T03:31:20.776Z,6.43
2022-12-22T03:34:04.615Z,6.97
2022-12-22T03:36:48.273Z,7.23
2022-12-22T03:39:33.696Z,6.53
2022-12-22T03:42:35.037Z,6.53
2022-12-22T03:45:36.179Z,6.77
2022-12-22T03:48:21.296Z,6.87
2022-12-22T03:51:05.189Z,6.67
2022-12-22T03:53:48.903Z,9.43
2022-12-22T03:56:32.742Z,6.80
2022-12-22T03:59:17.763Z,6.50
2022-12-22T04:02:01.788Z,7.20
2022-12-22T04:04:46.947Z,7.00
2022-12-22T04:07:30.731Z,8.03
2022-12-22T04:10:32.273Z,8.33
2022-12-22T04:13:15.953Z,8.80
2022-12-22T04:15:59.799Z,10.90
2022-12-22T04:18:43.709Z,13.43
2022-12-22T04:21:29.204Z,15.70
2022-12-22T04:24:13.595Z,9.93
2022-12-22T04:26:57.430Z,8.97
2022-12-22T04:29:41.171Z,9.80
2022-12-22T04:32:24.934Z,9.00
2022-12-22T04:35:09.773Z,9.90
2022-12-22T04:37:54.921Z,11.67
2022-12-22T04:40:38.707Z,13.13
2022-12-22T04:43:22.510Z,16.53
2022-12-22T04:46:06.958Z,19.07
2022-12-22T04:48:54.711Z,15.63
2022-12-22T04:51:43.268Z,13.37
2022-12-22T04:54:28.416Z,12.10
2022-12-22T04:57:12.194Z,15.90
2022-12-22T04:59:56.170Z,11.47
2022-12-22T05:02:40.106Z,13.67
2022-12-22T05:05:23.865Z,14.90
2022-12-22T05:08:07.911Z,12.47
2022-12-22T05:10:53.219Z,21.43
2022-12-22T05:13:37.100Z,20.30
2022-12-22T05:16:20.940Z,16.00
2022-12-22T05:19:04.824Z,16.93
2022-12-22T05:21:48.577Z,16.83
2022-12-22T05:24:32.302Z,17.40
2022-12-22T05:27:17.535Z,15.93
2022-12-22T05:30:01.376Z,17.87
2022-12-22T05:32:48.119Z,15.43
2022-12-22T05:35:31.846Z,13.37
2022-12-22T05:38:15.664Z,13.90
2022-12-22T05:41:03.896Z,13.30
2022-12-22T05:43:49.624Z,14.33
2022-12-22T05:46:33.315Z,12.40
2022-12-22T05:49:17.174Z,13.57
2022-12-22T05:52:01.155Z,12.37
2022-12-22T05:54:45.246Z,11.23
2022-12-22T05:57:29.337Z,14.27
2022-12-22T06:00:16.977Z,14.77
2022-12-22T06:03:01.182Z,14.27
2022-12-22T06:05:45.269Z,14.43
2022-12-22T06:08:29.211Z,16.20
2022-12-22T06:11:12.945Z,16.17
2022-12-22T06:13:56.678Z,12.40
2022-12-22T06:16:41.778Z,13.93
2022-12-22T06:19:25.603Z,20.93
2022-12-22T06:22:09.582Z,18.57
2022-12-22T06:24:53.422Z,19.27
2022-12-22T06:27:37.203Z,14.77
2022-12-22T06:30:22.560Z,36.70
2022-12-22T06:33:09.820Z,42.33
2022-12-22T06:35:58.719Z,37.77
2022-12-22T06:38:43.004Z,39.33
2022-12-22T06:41:40.524Z,47.53
2022-12-22T06:44:24.355Z,46.27
2022-12-22T06:47:08.193Z,68.00
2022-12-22T06:49:53.369Z,42.63
2022-12-22T06:52:37.167Z,36.90
2022-12-22T06:55:21.017Z,33.17
2022-12-22T06:58:05.499Z,37.07
2022-12-22T07:00:51.350Z,31.17
2022-12-22T07:03:35.254Z,35.77
2022-12-22T07:06:20.646Z,29.97
2022-12-22T07:09:04.829Z,28.87
2022-12-22T07:11:48.707Z,22.13
2022-12-22T07:14:32.482Z,21.90
2022-12-22T07:17:16.293Z,22.40
2022-12-22T07:20:00.072Z,21.90
2022-12-22T07:22:45.281Z,19.97
2022-12-22T07:25:29.089Z,21.60
2022-12-22T07:28:18.402Z,25.17
2022-12-22T07:31:04.844Z,21.97
2022-12-22T07:33:48.709Z,21.43
2022-12-22T07:36:51.088Z,22.60
2022-12-22T07:39:54.470Z,19.63
2022-12-22T07:42:47.014Z,12.50
2022-12-22T07:45:30.804Z,13.10
2022-12-22T07:48:59.077Z,11.27
2022-12-22T07:52:01.460Z,11.93
2022-12-22T07:55:05.366Z,10.53
2022-12-22T07:58:07.471Z,10.00
2022-12-22T08:01:09.739Z,10.10
2022-12-22T08:03:53.674Z,10.87
2022-12-22T08:06:37.887Z,10.87
2022-12-22T08:09:23.128Z,15.93
2022-12-22T08:12:08.748Z,12.77
2022-12-22T08:14:52.548Z,9.13
2022-12-22T08:17:36.262Z,9.87
2022-12-22T08:20:20.145Z,11.33
2022-12-22T08:23:22.314Z,10.33
2022-12-22T08:26:14.783Z,10.03
2022-12-22T08:29:05.067Z,11.90
2022-12-22T08:32:07.808Z,10.27
2022-12-22T08:34:53.308Z,17.27
2022-12-22T08:37:55.483Z,12.77
2022-12-22T08:40:39.462Z,12.63
2022-12-22T08:43:25.029Z,12.23
2022-12-22T08:46:10.182Z,11.23
2022-12-22T08:48:53.910Z,9.27
2022-12-22T08:51:37.848Z,9.77
2022-12-22T08:54:22.351Z,8.73
2022-12-22T08:57:06.217Z,8.40
2022-12-22T08:59:50.028Z,9.40
2022-12-22T09:02:35.422Z,11.20
2022-12-22T09:05:19.492Z,13.43
2022-12-22T09:08:03.285Z,11.63
2022-12-22T09:10:47.224Z,7.97
2022-12-22T09:13:31.003Z,7.37
2022-12-22T09:16:14.985Z,7.43
2022-12-22T09:19:00.840Z,8.73
2022-12-22T09:21:45.113Z,7.60
2022-12-22T09:24:30.232Z,8.37
2022-12-22T09:27:14.092Z,7.20
2022-12-22T09:29:57.758Z,8.67
2022-12-22T09:32:41.545Z,6.87
2022-12-22T09:35:26.688Z,7.40
2022-12-22T09:38:10.484Z,7.10
2022-12-22T09:40:54.309Z,6.53
2022-12-22T09:43:38.749Z,6.70
2022-12-22T09:46:25.730Z,6.10
2022-12-22T09:49:13.685Z,6.30
2022-12-22T09:52:01.409Z,5.97
2022-12-22T09:54:45.221Z,6.33
2022-12-22T09:57:32.346Z,5.80
2022-12-22T10:00:19.385Z,9.07
2022-12-22T10:03:11.034Z,13.77
2022-12-22T10:06:00.775Z,8.20
2022-12-22T10:08:45.862Z,7.43
2022-12-22T10:11:29.608Z,14.27
2022-12-22T10:14:13.394Z,10.40
2022-12-22T10:17:19.059Z,5.77
2022-12-22T10:20:21.735Z,13.23
2022-12-22T10:23:15.278Z,13.83
2022-12-22T10:29:15.602Z,16.20
2022-12-22T10:32:02.204Z,11.30
2022-12-22T10:35:01.721Z,11.83
2022-12-22T10:37:48.005Z,8.00
2022-12-22T10:40:33.589Z,31.20
2022-12-22T10:43:24.996Z,16.53
2022-12-22T10:46:08.996Z,15.23
2022-12-22T10:48:52.827Z,7.53
2022-12-22T10:51:36.651Z,14.90
2022-12-22T10:54:29.708Z,9.70
2022-12-22T10:57:29.713Z,8.17
2022-12-22T11:00:27.291Z,9.30
2022-12-22T11:03:19.138Z,8.20
2022-12-22T11:06:14.393Z,8.40
2022-12-22T11:09:23.724Z,12.33
2022-12-22T11:12:12.042Z,10.80
2022-12-22T11:15:02.250Z,24.73
2022-12-22T11:17:57.591Z,13.70
2022-12-22T11:20:52.807Z,13.10
2022-12-22T11:23:45.484Z,9.63
2022-12-22T11:26:41.219Z,12.63
2022-12-22T11:29:44.148Z,7.53
2022-12-22T11:32:46.773Z,13.63
2022-12-22T11:35:52.691Z,19.30
2022-12-22T11:38:48.499Z,12.10
2022-12-22T11:41:58.171Z,8.57
2022-12-22T11:44:48.791Z,9.30
2022-12-22T11:47:40.628Z,8.10
2022-12-22T11:51:00.346Z,6.53
2022-12-22T11:54:05.380Z,7.50
2022-12-22T11:57:02.265Z,7.80
2022-12-22T11:59:55.956Z,10.43
2022-12-22T12:03:14.375Z,9.17
2022-12-22T12:06:13.376Z,9.87
2022-12-22T12:09:16.500Z,11.87
2022-12-22T12:12:09.862Z,7.33
2022-12-22T12:15:06.935Z,8.17
2022-12-22T12:18:09.233Z,7.87
2022-12-22T12:21:04.033Z,5.97
2022-12-22T12:24:05.778Z,5.80
2022-12-22T12:27:03.689Z,7.20
2022-12-22T12:30:35.811Z,7.30
2022-12-22T12:33:09.017Z,8.33
2022-12-22T12:36:01.149Z,10.30
2022-12-22T12:39:10.348Z,13.27
2022-12-22T12:42:05.975Z,10.30
2022-12-22T12:44:52.393Z,11.67
2022-12-22T12:47:37.685Z,16.27
2022-12-22T12:50:42.648Z,10.13
2022-12-22T12:53:28.120Z,10.87
2022-12-22T12:56:12.347Z,22.37
2022-12-22T12:58:58.414Z,41.00
2022-12-22T13:02:01.470Z,25.03
2022-12-22T13:05:29.941Z,12.73
2022-12-22T13:08:22.100Z,15.73
2022-12-22T13:12:10.439Z,9.13
2022-12-22T13:15:01.410Z,9.23
2022-12-22T13:17:50.496Z,8.40
2022-12-22T13:20:36.419Z,9.87
2022-12-22T13:23:20.348Z,11.30
2022-12-22T13:26:08.139Z,13.10
2022-12-22T13:28:57.437Z,11.20
2022-12-22T13:31:45.832Z,9.67
2022-12-22T13:35:20.181Z,11.07
2022-12-22T13:37:49.488Z,10.67
2022-12-22T13:40:41.180Z,16.70
2022-12-22T13:43:27.412Z,15.47
2022-12-22T13:46:11.517Z,11.53
2022-12-22T13:49:00.558Z,16.93
2022-12-22T13:51:44.348Z,18.67
2022-12-22T13:54:31.850Z,12.40
2022-12-22T13:57:19.450Z,12.77
2022-12-22T14:00:03.518Z,12.63
2022-12-22T14:02:54.073Z,11.23
2022-12-22T14:05:39.518Z,11.20
2022-12-22T14:08:25.047Z,10.37
2022-12-22T14:11:10.523Z,11.27
2022-12-22T14:13:54.439Z,13.27
2022-12-22T14:16:44.483Z,12.60
2022-12-22T14:19:32.198Z,12.27
2022-12-22T14:22:19.929Z,12.30
2022-12-22T14:25:10.579Z,13.93
2022-12-22T14:27:56.496Z,12.53
2022-12-22T14:30:45.298Z,19.33
2022-12-22T14:33:31.468Z,18.53
2022-12-22T14:36:18.481Z,20.30
2022-12-22T14:39:10.879Z,16.33
2022-12-22T14:41:57.271Z,15.03
2022-12-22T14:44:46.115Z,15.83
2022-12-22T14:47:30.368Z,16.90
2022-12-22T14:50:19.031Z,25.17
2022-12-22T14:53:05.113Z,29.07
2022-12-22T14:55:52.860Z,32.13
2022-12-22T14:58:41.184Z,26.47
2022-12-22T15:01:28.576Z,20.93
2022-12-22T15:04:18.534Z,19.50
2022-12-22T15:07:24.104Z,24.10
2022-12-22T15:10:15.648Z,31.97
2022-12-22T15:13:06.127Z,26.27
2022-12-22T15:15:51.025Z,30.53
2022-12-22T15:18:34.851Z,24.80
2022-12-22T15:21:20.247Z,17.73
2022-12-22T15:24:05.242Z,21.23
2022-12-22T15:26:49.151Z,22.87
2022-12-22T15:29:34.405Z,26.10
2022-12-22T15:32:18.277Z,31.93
2022-12-22T15:35:03.761Z,18.97
2022-12-22T15:37:47.757Z,19.97
2022-12-22T15:40:31.646Z,35.63
2022-12-22T15:43:53.866Z,34.60
2022-12-22T15:46:22.406Z,30.20
2022-12-22T15:49:11.560Z,29.47
2022-12-22T15:51:57.624Z,29.90
2022-12-22T15:54:41.741Z,22.57
2022-12-22T15:57:25.689Z,32.63
2022-12-22T16:00:12.234Z,26.00
2022-12-22T16:02:57.545Z,28.83
2022-12-22T16:05:42.163Z,24.60
2022-12-22T16:08:30.144Z,20.13
2022-12-22T16:11:14.220Z,23.27
2022-12-22T16:13:58.033Z,44.53
2022-12-22T16:16:42.282Z,40.03
2022-12-22T16:19:27.520Z,31.67
2022-12-22T16:22:13.005Z,31.93
2022-12-22T16:24:56.929Z,34.63
2022-12-22T16:27:40.636Z,23.93
2022-12-22T16:30:26.777Z,22.23
2022-12-22T16:33:12.727Z,30.00
2022-12-22T16:35:57.885Z,30.53
2022-12-22T16:38:41.642Z,27.93
2022-12-22T16:41:26.894Z,26.57
2022-12-22T16:44:10.977Z,34.37
2022-12-22T16:46:54.949Z,23.30
2022-12-22T16:49:39.641Z,44.63
2022-12-22T16:52:29.558Z,32.17
2022-12-22T16:55:16.711Z,31.93
2022-12-22T16:58:00.590Z,33.70
2022-12-22T17:00:46.359Z,38.37
2022-12-22T17:03:31.617Z,46.17
2022-12-22T17:06:15.551Z,31.77
2022-12-22T17:09:01.188Z,32.60
2022-12-22T17:11:45.965Z,46.73
2022-12-22T17:14:34.300Z,62.30
2022-12-22T17:17:26.827Z,34.43
2022-12-22T17:20:16.016Z,27.20
2022-12-22T17:23:02.147Z,28.63
2022-12-22T17:25:47.410Z,26.80
2022-12-22T17:28:31.473Z,32.23
2022-12-22T17:31:21.163Z,33.17
2022-12-22T17:34:14.583Z,28.67
2022-12-22T17:37:00.040Z,31.40
2022-12-22T17:39:45.218Z,31.03
2022-12-22T17:42:32.751Z,32.30
2022-12-22T17:45:18.484Z,41.97
2022-12-22T17:48:02.811Z,47.87
2022-12-22T17:50:49.838Z,58.70
2022-12-22T17:53:40.618Z,50.17
2022-12-22T17:56:27.129Z,36.10
2022-12-22T17:59:14.188Z,38.07
2022-12-22T18:01:58.378Z,54.37
2022-12-22T18:04:42.455Z,63.63
2022-12-22T18:07:26.619Z,45.53
2022-12-22T18:10:26.830Z,30.97
2022-12-22T18:13:18.100Z,27.00
2022-12-22T18:16:03.803Z,24.17
2022-12-22T18:18:48.761Z,25.60
2022-12-22T18:21:33.203Z,23.00
2022-12-22T18:24:18.550Z,24.00
2022-12-22T18:27:02.534Z,27.80
2022-12-22T18:29:48.092Z,28.70
2022-12-22T18:32:33.549Z,27.17
2022-12-22T18:35:19.005Z,24.03
2022-12-22T18:38:03.607Z,24.83
2022-12-22T18:40:49.053Z,24.07
2022-12-22T18:43:33.098Z,23.07
2022-12-22T18:46:17.509Z,25.00
2022-12-22T18:49:05.779Z,26.30
2022-12-22T18:51:50.319Z,24.30
2022-12-22T18:54:37.086Z,25.47
2022-12-22T18:57:21.730Z,23.47
2022-12-22T19:00:11.572Z,21.47
2022-12-22T19:03:00.539Z,23.93
2022-12-22T19:05:47.730Z,24.00
2022-12-22T19:08:32.006Z,23.60
2022-12-22T19:11:17.675Z,21.57
2022-12-22T19:14:02.720Z,20.13
2022-12-22T19:16:47.861Z,20.00
2022-12-22T19:19:32.000Z,20.60
2022-12-22T19:22:17.996Z,20.80
2022-12-22T19:25:02.018Z,30.30
2022-12-22T19:27:49.570Z,27.20
2022-12-22T19:30:34.412Z,32.53
2022-12-22T19:33:23.953Z,26.77
2022-12-22T19:36:09.079Z,24.53
2022-12-22T19:39:02.662Z,26.83
2022-12-22T19:41:51.507Z,25.83
2022-12-22T19:44:35.742Z,26.60
2022-12-22T19:47:22.487Z,25.67
2022-12-22T19:50:14.885Z,27.10
2022-12-22T19:52:59.934Z,24.60
2022-12-22T19:55:48.508Z,24.80
2022-12-22T19:58:39.310Z,25.97
2022-12-22T20:01:23.754Z,30.53
2022-12-22T20:04:13.033Z,23.97
2022-12-22T20:06:57.089Z,21.30
2022-12-22T20:09:40.772Z,22.17
2022-12-22T20:12:30.629Z,25.17
2022-12-22T20:15:18.667Z,25.20
2022-12-22T20:18:03.267Z,25.10
2022-12-22T20:20:58.261Z,23.77
2022-12-22T20:23:43.173Z,30.53
2022-12-22T20:26:27.825Z,26.07
2022-12-22T20:29:13.396Z,26.07
2022-12-22T20:31:57.401Z,26.97
2022-12-22T20:34:41.851Z,28.30
2022-12-22T20:37:26.675Z,22.57
2022-12-22T20:40:25.029Z,22.47
2022-12-22T20:43:14.755Z,20.93
2022-12-22T20:46:05.272Z,20.10
2022-12-22T20:48:51.589Z,19.67
2022-12-22T20:51:35.760Z,17.60
2022-12-22T20:54:19.735Z,17.93
2022-12-22T20:57:04.570Z,18.80
2022-12-22T20:59:55.420Z,18.87
2022-12-22T21:02:41.685Z,18.33
2022-12-22T21:05:25.592Z,15.90
2022-12-22T21:08:20.271Z,15.30
2022-12-22T21:11:05.541Z,15.20
2022-12-22T21:13:49.960Z,13.30
2022-12-22T21:16:34.268Z,15.10
2022-12-22T21:19:20.340Z,16.10
2022-12-22T21:22:04.212Z,13.57
2022-12-22T21:24:48.098Z,14.10
2022-12-22T21:27:31.833Z,14.20
2022-12-22T21:30:18.831Z,13.80
2022-12-22T21:33:02.636Z,13.67
2022-12-22T21:35:47.983Z,12.63
2022-12-22T21:38:34.355Z,14.03
2022-12-22T21:41:18.077Z,13.33
2022-12-22T21:44:01.796Z,20.70
2022-12-22T21:46:47.846Z,23.23
2022-12-22T21:49:33.763Z,18.57
2022-12-22T21:52:19.641Z,18.20
2022-12-22T21:55:05.400Z,17.17
2022-12-22T21:57:49.839Z,23.23
2022-12-22T22:00:34.926Z,24.77
2022-12-22T22:03:19.013Z,24.90
2022-12-22T22:06:03.066Z,32.27
2022-12-22T22:08:48.572Z,20.83
2022-12-22T22:11:33.194Z,25.13
2022-12-22T22:14:17.637Z,33.17
2022-12-22T22:17:01.531Z,28.30
2022-12-22T22:19:45.332Z,27.90
2022-12-22T22:22:29.196Z,22.60
2022-12-22T22:25:15.411Z,30.63
2022-12-22T22:28:00.492Z,24.23
2022-12-22T22:30:44.485Z,28.20
2022-12-22T22:33:28.244Z,28.67
2022-12-22T22:36:12.133Z,27.53
2022-12-22T22:38:56.104Z,16.07
2022-12-22T22:41:43.539Z,16.70
2022-12-22T22:44:27.845Z,24.23
2022-12-22T22:47:11.635Z,16.00
2022-12-22T22:49:55.391Z,19.03
2022-12-22T22:52:39.172Z,17.07
2022-12-22T22:55:23.229Z,28.07
2022-12-22T22:58:08.981Z,27.03
2022-12-22T23:00:52.822Z,26.87
2022-12-22T23:03:37.796Z,22.93
2022-12-22T23:06:21.737Z,19.67
2022-12-22T23:09:05.905Z,22.93
2022-12-22T23:11:52.585Z,18.73
2022-12-22T23:14:37.752Z,25.23
2022-12-22T23:17:21.521Z,21.37
2022-12-22T23:20:06.132Z,24.57
2022-12-22T23:22:49.884Z,22.67
2022-12-22T23:25:33.980Z,20.83
2022-12-22T23:28:18.729Z,22.87
2022-12-22T23:31:03.982Z,24.30
2022-12-22T23:33:48.159Z,25.37
2022-12-22T23:36:32.509Z,25.63
2022-12-22T23:39:16.443Z,24.00
2022-12-22T23:42:02.131Z,20.20
2022-12-22T23:44:45.924Z,21.00
2022-12-22T23:47:31.112Z,22.53
2022-12-22T23:50:14.847Z,20.73
2022-12-22T23:52:58.658Z,22.33
2022-12-22T23:55:44.566Z,17.70
2022-12-22T23:58:28.473Z,14.73
